createdAt,value
2018-01-04T00:01:07.360Z,82.10
2018-01-04T00:03:34.912Z,81.60
2018-01-04T00:06:02.412Z,81.30
2018-01-04T00:08:29.915Z,81.00
2018-01-04T00:10:57.500Z,81.40
2018-01-04T00:13:25.021Z,81.30
2018-01-04T00:15:52.630Z,81.60
2018-01-04T00:18:20.181Z,81.40
2018-01-04T00:20:47.737Z,81.80
2018-01-04T00:23:15.345Z,82.00
2018-01-04T00:25:43.662Z,81.50
2018-01-04T00:28:11.211Z,81.40
2018-01-04T00:30:38.753Z,81.70
2018-01-04T00:33:06.286Z,82.10
2018-01-04T00:35:33.819Z,82.80
2018-01-04T00:38:01.365Z,82.10
2018-01-04T00:40:28.915Z,82.00
2018-01-04T00:42:56.525Z,81.50
2018-01-04T00:45:24.095Z,81.40
2018-01-04T00:47:51.641Z,81.20
2018-01-04T00:50:19.210Z,81.20
2018-01-04T00:52:47.446Z,81.10
2018-01-04T00:55:14.955Z,81.20
2018-01-04T00:57:42.516Z,81.80
2018-01-04T01:00:10.043Z,81.80
2018-01-04T01:02:37.542Z,82.20
2018-01-04T01:05:05.179Z,83.40
2018-01-04T01:07:32.800Z,83.90
2018-01-04T01:10:00.467Z,86.50
2018-01-04T01:12:27.993Z,86.80
2018-01-04T01:14:55.590Z,86.80
2018-01-04T01:17:23.198Z,87.50
2018-01-04T01:19:50.755Z,87.40
2018-01-04T01:22:18.307Z,87.40
2018-01-04T01:24:45.859Z,87.40
2018-01-04T01:27:13.366Z,87.20
2018-01-04T01:29:40.906Z,87.20
2018-01-04T01:32:08.410Z,87.20
2018-01-04T01:34:36.712Z,87.30
2018-01-04T01:37:04.261Z,87.20
2018-01-04T01:39:31.786Z,87.10
2018-01-04T01:41:59.289Z,85.90
2018-01-04T01:44:26.826Z,85.30
2018-01-04T01:46:54.329Z,85.40
2018-01-04T01:49:21.832Z,84.90
2018-01-04T01:51:49.405Z,84.60
2018-01-04T01:54:16.961Z,84.30
2018-01-04T01:56:44.493Z,83.40
2018-01-04T01:59:12.037Z,83.60
2018-01-04T02:01:39.544Z,83.40
2018-01-04T02:04:07.059Z,83.10
2018-01-04T02:06:35.362Z,83.20
2018-01-04T02:09:02.892Z,83.20
2018-01-04T02:11:31.197Z,83.50
2018-01-04T02:13:58.752Z,83.40
2018-01-04T02:16:27.025Z,82.70
2018-01-04T02:19:07.212Z,83.20
2018-01-04T02:21:46.540Z,83.10
2018-01-04T02:24:25.819Z,83.30
2018-01-04T02:27:05.275Z,83.10
2018-01-04T02:29:44.681Z,83.00
2018-01-04T02:32:24.123Z,82.90
2018-01-04T02:34:57.545Z,83.30
2018-01-04T02:37:37.539Z,83.20
2018-01-04T02:40:16.943Z,83.10
2018-01-04T02:42:57.189Z,83.40
2018-01-04T02:45:47.024Z,83.60
2018-01-04T02:48:14.595Z,83.50
2018-01-04T02:50:42.118Z,82.80
2018-01-04T02:53:09.649Z,82.70
2018-01-04T02:55:37.259Z,83.00
2018-01-04T02:58:04.888Z,82.40
2018-01-04T03:00:32.391Z,82.70
2018-01-04T03:02:59.928Z,83.00
2018-01-04T03:05:27.436Z,82.20
2018-01-04T03:07:54.974Z,82.80
2018-01-04T03:10:22.550Z,82.20
2018-01-04T03:12:50.086Z,82.80
2018-01-04T03:15:17.657Z,82.60
2018-01-04T03:17:45.189Z,82.40
2018-01-04T03:20:12.706Z,82.40
2018-01-04T03:22:46.020Z,82.20
2018-01-04T03:25:19.399Z,82.10
2018-01-04T03:27:52.578Z,82.40
2018-01-04T03:30:25.864Z,82.40
2018-01-04T03:32:58.920Z,82.10
2018-01-04T03:35:32.143Z,82.10
2018-01-04T03:38:05.172Z,81.80
2018-01-04T03:40:38.425Z,82.20
2018-01-04T03:43:12.289Z,81.80
2018-01-04T03:45:45.537Z,81.80
2018-01-04T03:48:18.807Z,81.50
2018-01-04T03:50:51.970Z,81.50
2018-01-04T03:53:25.235Z,81.60
2018-01-04T03:55:58.500Z,81.40
2018-01-04T03:58:26.830Z,81.30
2018-01-04T04:00:59.967Z,81.20
2018-01-04T04:03:27.472Z,81.20
2018-01-04T04:06:00.851Z,80.00
2018-01-04T04:08:43.240Z,80.10
2018-01-04T04:11:11.546Z,79.20
2018-01-04T04:13:39.051Z,79.10
2018-01-04T04:16:06.588Z,78.90
2018-01-04T04:18:34.110Z,77.90
2018-01-04T04:21:02.450Z,77.80
2018-01-04T04:23:30.052Z,77.70
2018-01-04T04:25:57.561Z,77.60
2018-01-04T04:28:25.822Z,77.90
2018-01-04T04:30:53.350Z,78.00
2018-01-04T04:33:20.945Z,78.20
2018-01-04T04:35:48.525Z,78.00
2018-01-04T04:38:16.052Z,78.20
2018-01-04T04:40:43.603Z,78.30
2018-01-04T04:43:11.196Z,76.90
2018-01-04T04:45:38.748Z,77.20
2018-01-04T04:48:06.282Z,77.50
2018-01-04T04:50:33.804Z,77.70
2018-01-04T04:53:01.305Z,77.10
2018-01-04T04:55:28.844Z,77.50
2018-01-04T04:57:56.390Z,78.00
2018-01-04T05:00:23.905Z,78.20
2018-01-04T05:02:51.471Z,78.10
2018-01-04T05:05:19.723Z,78.10
2018-01-04T05:07:47.261Z,77.90
2018-01-04T05:10:15.544Z,78.30
2018-01-04T05:12:43.157Z,78.30
2018-01-04T05:15:10.712Z,78.20
2018-01-04T05:17:38.256Z,78.50
2018-01-04T05:20:05.796Z,78.30
2018-01-04T05:22:34.103Z,78.70
2018-01-04T05:25:01.613Z,78.70
2018-01-04T05:27:29.207Z,78.60
2018-01-04T05:29:57.473Z,78.90
2018-01-04T05:32:25.023Z,78.80
2018-01-04T05:34:52.599Z,78.70
2018-01-04T05:37:20.164Z,78.80
2018-01-04T05:39:47.766Z,78.50
2018-01-04T05:42:15.312Z,78.60
2018-01-04T05:44:43.652Z,79.00
2018-01-04T05:47:11.156Z,79.00
2018-01-04T05:49:39.462Z,78.60
2018-01-04T05:52:07.039Z,78.60
2018-01-04T05:54:34.561Z,78.40
2018-01-04T05:57:02.826Z,78.60
2018-01-04T05:59:30.350Z,78.50
2018-01-04T06:01:57.886Z,79.10
2018-01-04T06:04:26.149Z,80.80
2018-01-04T06:06:53.671Z,80.60
2018-01-04T06:09:21.211Z,80.90
2018-01-04T06:11:48.714Z,82.20
2018-01-04T06:14:16.266Z,83.20
2018-01-04T06:16:43.809Z,83.40
2018-01-04T06:19:11.363Z,83.90
2018-01-04T06:21:38.922Z,85.10
2018-01-04T06:24:06.482Z,85.20
2018-01-04T06:26:34.792Z,85.60
2018-01-04T06:29:02.346Z,85.60
2018-01-04T06:31:29.953Z,84.60
2018-01-04T06:33:57.480Z,85.40
2018-01-04T06:36:25.019Z,84.90
2018-01-04T06:38:53.396Z,84.10
2018-01-04T06:41:21.725Z,84.60
2018-01-04T06:43:49.233Z,84.50
2018-01-04T06:46:16.770Z,83.60
2018-01-04T06:48:44.401Z,82.60
2018-01-04T06:51:11.944Z,83.80
2018-01-04T06:53:40.242Z,83.00
2018-01-04T06:56:07.804Z,82.90
2018-01-04T06:58:35.321Z,83.40
2018-01-04T07:01:02.942Z,83.10
2018-01-04T07:03:30.476Z,83.20
2018-01-04T07:05:57.985Z,83.40
2018-01-04T07:08:25.544Z,82.80
2018-01-04T07:10:53.071Z,82.50
2018-01-04T07:13:21.380Z,83.20
2018-01-04T07:15:48.894Z,83.10
2018-01-04T07:18:16.466Z,82.70
2018-01-04T07:20:43.998Z,83.10
2018-01-04T07:23:11.501Z,82.10
2018-01-04T07:25:40.530Z,84.40
2018-01-04T07:28:08.043Z,83.70
2018-01-04T07:30:35.675Z,84.30
2018-01-04T07:33:03.227Z,85.00
2018-01-04T07:35:30.751Z,83.90
2018-01-04T07:37:58.304Z,83.90
2018-01-04T07:40:25.893Z,84.00
2018-01-04T07:42:53.415Z,83.70
2018-01-04T07:45:20.972Z,83.40
2018-01-04T07:47:48.502Z,82.40
2018-01-04T07:50:16.051Z,82.80
2018-01-04T07:52:44.332Z,82.80
2018-01-04T07:55:12.623Z,82.70
2018-01-04T07:57:40.921Z,82.40
2018-01-04T08:00:08.436Z,82.30
2018-01-04T08:02:36.009Z,82.20
2018-01-04T08:05:03.554Z,82.10
2018-01-04T08:07:31.085Z,81.40
2018-01-04T08:09:58.637Z,81.20
2018-01-04T08:12:26.148Z,80.90
2018-01-04T08:14:53.674Z,81.20
2018-01-04T08:17:21.206Z,80.90
2018-01-04T08:19:48.988Z,82.10
2018-01-04T08:22:17.264Z,80.80
2018-01-04T08:24:44.787Z,80.70
2018-01-04T08:27:12.337Z,81.40
2018-01-04T08:29:39.844Z,80.30
2018-01-04T08:32:07.375Z,80.50
2018-01-04T08:34:34.956Z,81.20
2018-01-04T08:37:02.461Z,80.50
2018-01-04T08:39:30.009Z,80.70
2018-01-04T08:41:57.507Z,81.30
2018-01-04T08:44:25.040Z,81.70
2018-01-04T08:46:52.605Z,82.80
2018-01-04T08:49:20.139Z,82.70
2018-01-04T08:51:47.706Z,82.10
2018-01-04T08:54:15.218Z,81.50
2018-01-04T08:56:42.717Z,82.00
2018-01-04T08:59:10.273Z,82.80
2018-01-04T09:01:37.785Z,83.00
2018-01-04T09:04:05.322Z,82.50
2018-01-04T09:06:32.886Z,83.80
2018-01-04T09:09:00.434Z,83.30
2018-01-04T09:11:27.939Z,84.10
2018-01-04T09:13:55.491Z,84.70
2018-01-04T09:16:23.004Z,83.70
2018-01-04T09:18:50.539Z,84.50
2018-01-04T09:21:18.141Z,82.70
2018-01-04T09:23:45.648Z,83.20
2018-01-04T09:26:13.206Z,82.60
2018-01-04T09:28:40.769Z,83.40
2018-01-04T09:31:08.265Z,84.40
2018-01-04T09:33:36.563Z,86.70
2018-01-04T09:36:04.151Z,85.80
2018-01-04T09:38:31.722Z,85.60
2018-01-04T09:40:59.319Z,85.40
2018-01-04T09:43:26.879Z,86.10
2018-01-04T09:45:54.425Z,85.30
2018-01-04T09:48:22.200Z,85.20
2018-01-04T09:50:49.747Z,85.20
2018-01-04T09:53:17.264Z,84.90
2018-01-04T09:55:44.811Z,85.50
2018-01-04T09:58:12.327Z,86.20
2018-01-04T10:00:39.844Z,86.70
2018-01-04T10:03:07.407Z,86.20
2018-01-04T10:05:34.938Z,86.40
2018-01-04T10:08:02.572Z,86.20
2018-01-04T10:10:30.880Z,86.50
2018-01-04T10:12:58.443Z,86.50
2018-01-04T10:15:25.954Z,87.50
2018-01-04T10:17:53.515Z,86.30
2018-01-04T10:20:21.083Z,88.30
2018-01-04T10:22:48.606Z,89.50
2018-01-04T10:25:16.146Z,91.70
2018-01-04T10:27:43.685Z,92.90
2018-01-04T10:30:11.979Z,93.40
2018-01-04T10:32:39.508Z,93.30
2018-01-04T10:35:07.071Z,93.20
2018-01-04T10:37:34.595Z,92.70
2018-01-04T10:40:02.106Z,93.30
2018-01-04T10:42:29.643Z,93.10
2018-01-04T10:44:57.182Z,92.20
2018-01-04T10:47:24.695Z,92.50
2018-01-04T10:49:52.215Z,90.30
2018-01-04T10:52:19.747Z,91.30
2018-01-04T10:54:47.248Z,89.40
2018-01-04T10:57:15.740Z,89.30
2018-01-04T10:59:43.267Z,89.70
2018-01-04T11:02:10.763Z,89.00
2018-01-04T11:04:38.286Z,88.40
2018-01-04T11:07:06.568Z,90.80
2018-01-04T11:09:34.113Z,90.80
2018-01-04T11:12:01.607Z,91.50
2018-01-04T11:14:29.882Z,94.10
2018-01-04T11:16:57.437Z,94.10
2018-01-04T11:19:24.982Z,95.00
2018-01-04T11:21:52.471Z,96.40
2018-01-04T11:24:20.783Z,99.40
2018-01-04T11:26:48.382Z,98.50
2018-01-04T11:29:15.958Z,99.40
2018-01-04T11:31:43.507Z,99.40
2018-01-04T11:34:11.001Z,99.90
2018-01-04T11:36:38.547Z,99.90
2018-01-04T11:39:06.145Z,99.90
2018-01-04T11:41:33.679Z,99.90
2018-01-04T11:44:01.249Z,99.90
2018-01-04T11:46:28.770Z,99.90
2018-01-04T11:48:56.282Z,99.90
2018-01-04T11:51:23.842Z,99.90
2018-01-04T11:53:51.354Z,99.90
2018-01-04T11:56:18.962Z,99.90
2018-01-04T11:58:46.465Z,99.90
2018-01-04T12:01:14.763Z,99.90
2018-01-04T12:03:42.352Z,99.90
2018-01-04T12:06:09.926Z,99.90
2018-01-04T12:08:37.493Z,99.90
2018-01-04T12:11:05.036Z,99.90
2018-01-04T12:13:32.547Z,99.90
2018-01-04T12:16:00.098Z,99.90
2018-01-04T12:18:27.605Z,99.90
2018-01-04T12:20:55.920Z,99.90
2018-01-04T12:23:23.428Z,99.90
2018-01-04T12:25:51.034Z,99.90
2018-01-04T12:28:18.569Z,99.90
2018-01-04T12:30:46.888Z,99.90
2018-01-04T12:33:14.405Z,99.90
2018-01-04T12:35:41.941Z,99.90
2018-01-04T12:38:09.444Z,99.90
2018-01-04T12:40:37.036Z,99.90
2018-01-04T12:43:04.540Z,99.90
2018-01-04T12:45:32.100Z,99.90
2018-01-04T12:47:59.629Z,99.90
2018-01-04T12:50:27.189Z,99.90
2018-01-04T12:52:54.715Z,99.90
2018-01-04T12:55:22.279Z,99.90
2018-01-04T12:57:49.787Z,99.90
2018-01-04T13:00:17.347Z,99.90
2018-01-04T13:02:44.925Z,99.90
2018-01-04T13:05:12.426Z,99.90
2018-01-04T13:07:39.977Z,99.90
2018-01-04T13:10:07.520Z,99.90
2018-01-04T13:12:35.077Z,99.90
2018-01-04T13:15:02.600Z,99.90
2018-01-04T13:17:30.101Z,99.90
2018-01-04T13:19:57.670Z,99.90
2018-01-04T13:22:25.264Z,99.90
2018-01-04T13:24:52.955Z,99.90
2018-01-04T13:27:20.534Z,99.90
2018-01-04T13:29:48.107Z,99.90
2018-01-04T13:32:15.625Z,99.90
2018-01-04T13:34:43.166Z,99.90
2018-01-04T13:37:10.700Z,99.90
2018-01-04T13:39:39.031Z,99.90
2018-01-04T13:42:06.540Z,99.90
2018-01-04T13:44:34.064Z,99.90
2018-01-04T13:47:01.579Z,98.50
2018-01-04T13:49:29.985Z,98.60
2018-01-04T13:51:57.570Z,98.50
2018-01-04T13:54:25.065Z,99.40
2018-01-04T13:56:52.626Z,99.10
2018-01-04T13:59:20.151Z,99.10
2018-01-04T14:01:47.657Z,97.80
2018-01-04T14:04:15.198Z,97.20
2018-01-04T14:06:42.760Z,96.40
2018-01-04T14:09:10.316Z,96.20
2018-01-04T14:11:37.945Z,96.80
2018-01-04T14:14:06.242Z,97.80
2018-01-04T14:16:33.866Z,97.80
2018-01-04T14:19:02.186Z,96.00
2018-01-04T14:21:29.735Z,95.90
2018-01-04T14:23:57.279Z,95.80
2018-01-04T14:26:24.826Z,95.50
2018-01-04T14:28:52.385Z,94.60
2018-01-04T14:31:19.925Z,93.90
2018-01-04T14:33:47.454Z,94.10
2018-01-04T14:36:15.748Z,93.70
2018-01-04T14:38:44.039Z,93.00
2018-01-04T14:41:11.571Z,93.00
2018-01-04T14:43:39.124Z,94.20
2018-01-04T14:46:06.688Z,93.30
2018-01-04T14:48:34.227Z,93.20
2018-01-04T14:51:01.750Z,94.10
2018-01-04T14:53:30.076Z,94.70
2018-01-04T14:55:57.597Z,94.70
2018-01-04T14:58:25.921Z,95.60
2018-01-04T15:00:54.719Z,94.90
2018-01-04T15:03:22.287Z,96.10
2018-01-04T15:05:49.851Z,96.00
2018-01-04T15:08:17.367Z,97.10
2018-01-04T15:10:44.879Z,98.40
2018-01-04T15:13:12.443Z,99.20
2018-01-04T15:15:39.946Z,99.00
2018-01-04T15:18:07.485Z,99.30
2018-01-04T15:20:35.037Z,99.90
2018-01-04T15:23:02.560Z,99.90
2018-01-04T15:25:30.106Z,99.90
2018-01-04T15:27:57.662Z,99.90
2018-01-04T15:30:25.211Z,99.90
2018-01-04T15:32:52.768Z,99.90
2018-01-04T15:35:20.307Z,99.90
2018-01-04T15:37:47.807Z,99.90
2018-01-04T15:40:15.381Z,99.90
2018-01-04T15:42:42.944Z,99.90
2018-01-04T15:45:10.450Z,99.90
2018-01-04T15:47:38.041Z,99.90
2018-01-04T15:50:05.627Z,99.90
2018-01-04T15:52:33.134Z,99.90
2018-01-04T15:55:00.695Z,99.90
2018-01-04T15:57:28.971Z,99.90
2018-01-04T15:59:57.330Z,99.90
2018-01-04T16:02:24.860Z,99.90
2018-01-04T16:04:52.402Z,99.90
2018-01-04T16:07:19.950Z,99.90
2018-01-04T16:09:48.227Z,99.90
2018-01-04T16:12:16.580Z,99.90
2018-01-04T16:14:44.102Z,99.90
2018-01-04T16:17:11.626Z,99.90
2018-01-04T16:19:39.180Z,99.90
2018-01-04T16:22:06.716Z,99.90
2018-01-04T16:24:34.278Z,99.90
2018-01-04T16:27:01.869Z,99.90
2018-01-04T16:29:29.393Z,99.90
2018-01-04T16:31:56.911Z,99.90
2018-01-04T16:34:24.478Z,99.90
2018-01-04T16:36:51.986Z,99.90
2018-01-04T16:39:19.516Z,99.90
2018-01-04T16:41:47.119Z,99.90
2018-01-04T16:44:14.677Z,99.90
2018-01-04T16:46:42.228Z,99.90
2018-01-04T16:49:09.746Z,99.90
2018-01-04T16:51:37.291Z,99.90
2018-01-04T16:54:04.812Z,99.90
2018-01-04T16:56:33.139Z,99.90
2018-01-04T16:59:00.668Z,99.90
2018-01-04T17:01:28.191Z,99.90
2018-01-04T17:03:55.742Z,99.90
2018-01-04T17:06:23.259Z,99.90
2018-01-04T17:08:50.776Z,99.90
2018-01-04T17:11:18.330Z,99.90
2018-01-04T17:13:45.890Z,99.90
2018-01-04T17:16:13.434Z,99.90
2018-01-04T17:18:40.964Z,99.90
2018-01-04T17:21:08.497Z,99.90
2018-01-04T17:23:36.026Z,99.90
2018-01-04T17:26:03.567Z,99.90
2018-01-04T17:28:31.847Z,99.90
2018-01-04T17:31:00.187Z,99.90
2018-01-04T17:33:27.736Z,99.90
2018-01-04T17:35:55.235Z,99.90
2018-01-04T17:38:22.801Z,99.90
2018-01-04T17:40:50.373Z,99.90
2018-01-04T17:43:17.903Z,99.90
2018-01-04T17:45:45.441Z,99.90
2018-01-04T17:48:12.990Z,99.90
2018-01-04T17:50:40.536Z,99.90
2018-01-04T17:53:08.093Z,99.90
2018-01-04T17:55:35.607Z,99.90
2018-01-04T17:58:03.109Z,99.90
2018-01-04T18:00:30.680Z,99.90
2018-01-04T18:02:58.219Z,99.90
2018-01-04T18:05:25.753Z,99.90
2018-01-04T18:07:53.294Z,99.90
2018-01-04T18:10:20.925Z,99.90
2018-01-04T18:12:48.447Z,99.90
2018-01-04T18:15:16.011Z,99.90
2018-01-04T18:17:43.530Z,99.90
2018-01-04T18:20:11.678Z,99.90
2018-01-04T18:22:39.183Z,99.90
2018-01-04T18:25:07.519Z,99.90
2018-01-04T18:27:35.029Z,99.90
2018-01-04T18:30:03.458Z,99.90
2018-01-04T18:32:31.008Z,99.90
2018-01-04T18:34:58.529Z,99.90
2018-01-04T18:37:26.133Z,99.90
2018-01-04T18:39:53.660Z,99.90
2018-01-04T18:42:21.199Z,99.90
2018-01-04T18:44:48.740Z,99.90
2018-01-04T18:47:16.283Z,99.90
2018-01-04T18:49:43.800Z,99.90
2018-01-04T18:52:11.375Z,99.90
2018-01-04T18:54:38.883Z,99.90
2018-01-04T18:57:06.459Z,99.90
2018-01-04T18:59:34.011Z,99.90
2018-01-04T19:02:01.529Z,99.90
2018-01-04T19:04:29.079Z,99.90
2018-01-04T19:06:56.709Z,99.80
2018-01-04T19:09:24.172Z,99.90
2018-01-04T19:11:51.732Z,99.90
2018-01-04T19:14:20.008Z,99.90
2018-01-04T19:16:47.511Z,99.90
2018-01-04T19:19:15.055Z,99.90
2018-01-04T19:21:42.568Z,99.90
2018-01-04T19:24:10.075Z,99.90
2018-01-04T19:26:37.663Z,99.90
2018-01-04T19:29:05.222Z,99.90
2018-01-04T19:31:32.798Z,99.90
2018-01-04T19:34:00.295Z,99.90
2018-01-04T19:36:27.830Z,99.90
2018-01-04T19:38:55.366Z,99.90
2018-01-04T19:41:22.935Z,99.90
2018-01-04T19:43:50.460Z,99.90
2018-01-04T19:46:18.025Z,99.90
2018-01-04T19:48:45.560Z,99.90
2018-01-04T19:51:13.083Z,99.90
2018-01-04T19:53:40.626Z,99.50
2018-01-04T19:56:08.180Z,99.50
2018-01-04T19:58:35.710Z,99.40
2018-01-04T20:01:03.222Z,99.90
2018-01-04T20:03:31.651Z,99.60
2018-01-04T20:05:59.180Z,99.50
2018-01-04T20:08:27.520Z,99.80
2018-01-04T20:10:55.087Z,99.60
2018-01-04T20:13:22.615Z,99.90
2018-01-04T20:15:50.167Z,99.90
2018-01-04T20:18:17.668Z,99.90
2018-01-04T20:20:45.204Z,99.90
2018-01-04T20:23:12.704Z,99.80
2018-01-04T20:25:40.294Z,99.80
2018-01-04T20:28:07.797Z,99.60
2018-01-04T20:30:35.317Z,99.80
2018-01-04T20:33:04.027Z,99.60
2018-01-04T20:35:32.335Z,99.60
2018-01-04T20:37:59.931Z,99.60
2018-01-04T20:40:27.465Z,99.00
2018-01-04T20:42:55.151Z,99.00
2018-01-04T20:45:22.678Z,99.10
2018-01-04T20:47:50.338Z,98.90
2018-01-04T20:50:17.876Z,98.70
2018-01-04T20:52:45.432Z,98.70
2018-01-04T20:55:12.956Z,97.60
2018-01-04T20:57:40.510Z,97.30
2018-01-04T21:00:08.023Z,97.60
2018-01-04T21:02:35.659Z,98.60
2018-01-04T21:05:03.217Z,99.30
2018-01-04T21:07:30.730Z,99.80
2018-01-04T21:09:58.266Z,99.90
2018-01-04T21:12:25.783Z,99.90
2018-01-04T21:14:54.094Z,99.90
2018-01-04T21:17:21.678Z,99.90
2018-01-04T21:19:49.241Z,99.90
2018-01-04T21:22:16.763Z,99.90
2018-01-04T21:24:45.033Z,99.90
2018-01-04T21:27:13.338Z,99.90
2018-01-04T21:29:40.861Z,99.90
2018-01-04T21:32:08.413Z,99.90
2018-01-04T21:34:35.940Z,99.90
2018-01-04T21:37:03.473Z,99.90
2018-01-04T21:39:31.748Z,99.90
2018-01-04T21:41:59.247Z,99.90
2018-01-04T21:44:26.840Z,98.80
2018-01-04T21:46:54.378Z,98.40
2018-01-04T21:49:21.915Z,98.20
2018-01-04T21:51:50.224Z,98.00
2018-01-04T21:54:17.744Z,97.80
2018-01-04T21:56:45.282Z,97.60
2018-01-04T21:59:12.813Z,96.50
2018-01-04T22:01:40.317Z,95.60
2018-01-04T22:04:07.883Z,94.30
2018-01-04T22:06:35.432Z,93.80
2018-01-04T22:09:02.990Z,94.10
2018-01-04T22:11:30.502Z,94.10
2018-01-04T22:13:58.040Z,92.40
2018-01-04T22:16:25.608Z,91.50
2018-01-04T22:18:53.153Z,86.20
2018-01-04T22:21:20.673Z,87.80
2018-01-04T22:23:48.970Z,87.80
2018-01-04T22:26:16.527Z,87.80
2018-01-04T22:28:44.063Z,87.40
2018-01-04T22:31:11.616Z,86.10
2018-01-04T22:33:39.125Z,86.90
2018-01-04T22:36:06.661Z,87.60
2018-01-04T22:38:34.263Z,87.10
2018-01-04T22:41:01.795Z,88.40
2018-01-04T22:43:29.354Z,88.60
2018-01-04T22:45:56.922Z,89.20
2018-01-04T22:48:24.463Z,87.80
2018-01-04T22:50:51.962Z,88.10
2018-01-04T22:53:19.532Z,88.20
2018-01-04T22:55:47.839Z,88.10
2018-01-04T22:58:15.426Z,88.00
2018-01-04T23:00:48.770Z,89.00
2018-01-04T23:03:17.080Z,88.40
2018-01-04T23:05:44.602Z,87.50
2018-01-04T23:08:12.147Z,88.50
2018-01-04T23:10:39.729Z,89.20
2018-01-04T23:13:07.282Z,89.30
2018-01-04T23:15:34.836Z,89.30
2018-01-04T23:18:02.348Z,89.30
2018-01-04T23:20:29.894Z,89.60
2018-01-04T23:22:57.406Z,89.20
2018-01-04T23:25:24.933Z,87.00
2018-01-04T23:27:53.228Z,87.30
2018-01-04T23:30:20.782Z,87.20
2018-01-04T23:32:49.075Z,87.60
2018-01-04T23:35:16.686Z,87.60
2018-01-04T23:37:44.188Z,87.80
2018-01-04T23:40:11.715Z,87.80
2018-01-04T23:42:39.244Z,86.80
2018-01-04T23:45:06.801Z,88.00
2018-01-04T23:47:35.106Z,87.00
2018-01-04T23:50:02.638Z,86.90
2018-01-04T23:52:30.940Z,89.30
2018-01-04T23:54:58.455Z,89.10
2018-01-04T23:57:26.006Z,89.20
2018-01-04T23:59:53.537Z,89.40
